createdAt,value
2023-02-11T00:01:34.485Z,20.70
2023-02-11T00:04:03.955Z,20.60
2023-02-11T00:06:33.898Z,21.00
2023-02-11T00:09:03.112Z,20.40
2023-02-11T00:11:31.526Z,19.40
2023-02-11T00:14:02.397Z,20.20
2023-02-11T00:16:32.598Z,19.00
2023-02-11T00:19:01.762Z,19.30
2023-02-11T00:21:29.851Z,18.90
2023-02-11T00:24:00.094Z,19.20
2023-02-11T00:26:35.261Z,19.00
2023-02-11T00:31:34.067Z,18.40
2023-02-11T00:34:02.505Z,18.00
2023-02-11T00:36:31.710Z,18.30
2023-02-11T00:39:00.131Z,18.10
2023-02-11T00:41:29.938Z,17.60
2023-02-11T00:44:01.888Z,17.90
2023-02-11T00:46:30.233Z,17.00
2023-02-11T00:48:59.276Z,17.90
2023-02-11T00:51:28.711Z,18.90
2023-02-11T00:53:57.281Z,16.80
2023-02-11T00:56:25.868Z,17.20
2023-02-11T00:58:54.270Z,16.80
2023-02-11T01:01:22.975Z,16.90
2023-02-11T01:03:51.498Z,16.90
2023-02-11T01:06:19.966Z,16.40
2023-02-11T01:08:47.983Z,16.20
2023-02-11T01:11:19.886Z,16.80
2023-02-11T01:13:49.485Z,14.60
2023-02-11T01:16:18.806Z,15.40
2023-02-11T01:18:47.795Z,16.00
2023-02-11T01:21:19.516Z,17.10
2023-02-11T01:23:47.830Z,15.60
2023-02-11T01:26:16.966Z,14.80
2023-02-11T01:28:45.123Z,15.80
2023-02-11T01:31:13.242Z,16.30
2023-02-11T01:33:41.782Z,16.40
2023-02-11T01:36:12.256Z,15.90
2023-02-11T01:38:41.280Z,16.50
2023-02-11T01:41:12.139Z,17.20
2023-02-11T01:43:44.693Z,16.80
2023-02-11T01:46:17.489Z,16.70
2023-02-11T01:48:49.658Z,18.90
2023-02-11T01:51:22.672Z,15.70
2023-02-11T01:54:10.859Z,15.30
2023-02-11T01:57:03.481Z,16.90
2023-02-11T01:59:37.781Z,16.50
2023-02-11T02:02:10.032Z,16.50
2023-02-11T02:04:54.194Z,16.90
2023-02-11T02:07:48.401Z,16.20
2023-02-11T02:10:21.134Z,16.40
2023-02-11T02:12:49.404Z,16.20
2023-02-11T02:15:34.686Z,15.50
2023-02-11T02:18:51.644Z,15.30
2023-02-11T02:21:50.698Z,14.00
2023-02-11T02:24:56.490Z,14.30
2023-02-11T02:27:54.073Z,17.50
2023-02-11T02:30:48.511Z,14.40
2023-02-11T02:33:23.853Z,11.40
2023-02-11T02:36:22.668Z,14.70
2023-02-11T02:39:08.000Z,15.00
2023-02-11T02:41:37.962Z,14.10
2023-02-11T02:44:08.306Z,13.20
2023-02-11T02:46:36.860Z,13.20
2023-02-11T02:49:12.720Z,12.80
2023-02-11T02:51:49.472Z,13.00
2023-02-11T02:54:29.528Z,13.00
2023-02-11T02:57:31.015Z,12.00
2023-02-11T03:00:25.321Z,13.90
2023-02-11T03:03:08.234Z,14.10
2023-02-11T03:06:01.608Z,13.30
2023-02-11T03:08:35.418Z,14.50
2023-02-11T03:11:05.636Z,13.70
2023-02-11T03:13:36.943Z,14.30
2023-02-11T03:16:11.655Z,13.90
2023-02-11T03:18:44.427Z,12.50
2023-02-11T03:21:15.942Z,13.10
2023-02-11T03:23:55.339Z,12.80
2023-02-11T03:26:33.014Z,14.70
2023-02-11T03:29:44.479Z,14.00
2023-02-11T03:32:23.756Z,13.00
2023-02-11T03:35:01.002Z,12.80
2023-02-11T03:37:40.214Z,13.20
2023-02-11T03:40:23.309Z,13.30
2023-02-11T03:42:57.782Z,13.60
2023-02-11T03:45:27.200Z,13.40
2023-02-11T03:48:00.645Z,13.10
2023-02-11T03:50:33.301Z,20.10
2023-02-11T03:53:03.299Z,13.30
2023-02-11T03:55:34.933Z,21.80
2023-02-11T03:58:02.961Z,23.60
2023-02-11T04:00:34.928Z,26.60
2023-02-11T04:03:04.787Z,25.90
2023-02-11T04:05:33.370Z,27.60
2023-02-11T04:08:01.832Z,26.80
2023-02-11T04:10:29.977Z,27.70
2023-02-11T04:12:58.330Z,27.30
2023-02-11T04:15:26.457Z,26.20
2023-02-11T04:17:54.513Z,26.00
2023-02-11T04:20:22.560Z,20.70
2023-02-11T04:22:50.844Z,24.50
2023-02-11T04:25:19.074Z,24.50
2023-02-11T04:27:47.094Z,24.90
2023-02-11T04:30:15.154Z,25.00
2023-02-11T04:32:43.179Z,26.50
2023-02-11T04:35:11.285Z,26.20
2023-02-11T04:37:39.459Z,17.70
2023-02-11T04:40:07.877Z,23.50
2023-02-11T04:42:35.853Z,21.70
2023-02-11T04:45:04.952Z,24.40
2023-02-11T04:47:32.962Z,23.90
2023-02-11T04:50:00.859Z,23.90
2023-02-11T04:52:28.928Z,25.50
2023-02-11T04:54:57.104Z,25.30
2023-02-11T04:57:25.093Z,23.00
2023-02-11T04:59:53.064Z,24.70
2023-02-11T05:02:21.087Z,27.20
2023-02-11T05:04:49.084Z,19.10
2023-02-11T05:07:16.976Z,20.10
2023-02-11T05:09:44.926Z,25.00
2023-02-11T05:12:12.892Z,24.30
2023-02-11T05:14:40.954Z,22.00
2023-02-11T05:17:10.211Z,24.90
2023-02-11T05:19:39.860Z,24.10
2023-02-11T05:22:07.783Z,26.50
2023-02-11T05:24:35.848Z,27.70
2023-02-11T05:27:03.859Z,27.00
2023-02-11T05:29:32.080Z,28.10
2023-02-11T05:32:00.345Z,28.10
2023-02-11T05:34:28.412Z,26.50
2023-02-11T05:36:56.564Z,26.60
2023-02-11T05:39:24.727Z,27.80
2023-02-11T05:41:52.905Z,27.70
2023-02-11T05:44:21.303Z,25.80
2023-02-11T05:46:49.536Z,28.00
2023-02-11T05:49:18.649Z,26.30
2023-02-11T05:51:46.848Z,28.40
2023-02-11T05:54:14.976Z,27.40
2023-02-11T05:56:44.892Z,27.50
2023-02-11T05:59:16.342Z,17.50
2023-02-11T06:01:44.360Z,28.40
2023-02-11T06:04:12.623Z,19.10
2023-02-11T06:06:40.713Z,26.20
2023-02-11T06:09:11.136Z,28.30
2023-02-11T06:11:39.153Z,26.80
2023-02-11T06:14:07.011Z,27.30
2023-02-11T06:16:35.105Z,25.40
2023-02-11T06:19:03.357Z,27.70
2023-02-11T06:21:43.013Z,22.30
2023-02-11T06:24:12.723Z,19.90
2023-02-11T06:26:40.891Z,21.20
2023-02-11T06:29:09.160Z,27.10
2023-02-11T06:31:39.361Z,29.20
2023-02-11T06:34:09.574Z,28.90
2023-02-11T06:36:41.086Z,32.30
2023-02-11T06:39:12.975Z,31.40
2023-02-11T06:41:41.112Z,27.40
2023-02-11T06:44:09.209Z,31.90
2023-02-11T06:46:37.302Z,34.90
2023-02-11T06:49:05.438Z,36.00
2023-02-11T06:51:33.490Z,37.00
2023-02-11T06:54:01.645Z,39.50
2023-02-11T06:56:30.473Z,39.60
2023-02-11T06:58:59.137Z,37.90
2023-02-11T07:01:27.891Z,37.10
2023-02-11T07:03:56.308Z,37.40
2023-02-11T07:06:28.091Z,35.70
2023-02-11T07:08:57.156Z,38.20
2023-02-11T07:11:27.998Z,36.50
2023-02-11T07:14:01.078Z,39.40
2023-02-11T07:16:31.129Z,37.00
2023-02-11T07:18:59.226Z,38.70
2023-02-11T07:21:27.883Z,37.20
2023-02-11T07:23:56.051Z,39.80
2023-02-11T07:26:24.361Z,39.00
2023-02-11T07:28:53.113Z,38.10
2023-02-11T07:31:24.825Z,39.60
2023-02-11T07:33:55.352Z,36.70
2023-02-11T07:36:23.872Z,37.70
2023-02-11T07:38:51.899Z,36.70
2023-02-11T07:41:22.398Z,36.50
2023-02-11T07:43:51.774Z,35.40
2023-02-11T07:46:25.536Z,38.00
2023-02-11T07:48:53.809Z,34.90
2023-02-11T07:51:24.824Z,36.00
2023-02-11T07:53:54.326Z,34.70
2023-02-11T07:56:23.773Z,38.60
2023-02-11T07:58:52.037Z,37.50
2023-02-11T08:01:25.179Z,35.90
2023-02-11T08:03:54.300Z,31.80
2023-02-11T08:06:24.678Z,35.20
2023-02-11T08:08:53.437Z,37.60
2023-02-11T08:11:24.931Z,40.20
2023-02-11T08:13:54.431Z,38.90
2023-02-11T08:16:32.583Z,24.50
2023-02-11T08:19:03.582Z,43.10
2023-02-11T08:21:31.996Z,39.40
2023-02-11T08:24:01.698Z,39.80
2023-02-11T08:26:32.999Z,40.00
2023-02-11T08:29:05.518Z,22.40
2023-02-11T08:31:35.998Z,24.80
2023-02-11T08:34:04.889Z,29.30
2023-02-11T08:36:36.214Z,11.80
2023-02-11T08:39:22.693Z,33.60
2023-02-11T08:41:56.992Z,32.80
2023-02-11T08:44:25.136Z,19.70
2023-02-11T08:46:54.022Z,33.70
2023-02-11T08:49:22.469Z,28.30
2023-02-11T08:51:51.476Z,29.50
2023-02-11T08:54:19.667Z,29.40
2023-02-11T08:56:51.604Z,19.20
2023-02-11T08:59:20.636Z,35.60
2023-02-11T09:01:49.812Z,35.60
2023-02-11T09:04:18.196Z,36.00
2023-02-11T09:06:46.354Z,34.10
2023-02-11T09:09:16.257Z,30.80
2023-02-11T09:11:45.721Z,19.20
2023-02-11T09:14:25.412Z,28.30
2023-02-11T09:16:53.778Z,19.40
2023-02-11T09:19:23.226Z,15.80
2023-02-11T09:21:51.407Z,14.00
2023-02-11T09:24:19.544Z,16.90
2023-02-11T09:26:47.763Z,17.20
2023-02-11T09:29:15.989Z,21.00
2023-02-11T09:31:44.134Z,19.80
2023-02-11T09:34:13.310Z,32.00
2023-02-11T09:36:42.541Z,15.60
2023-02-11T09:39:20.822Z,31.90
2023-02-11T09:41:51.834Z,8.90
2023-02-11T09:44:33.497Z,10.90
2023-02-11T09:47:24.340Z,17.30
2023-02-11T09:50:01.785Z,15.50
2023-02-11T09:52:51.886Z,24.80
2023-02-11T09:55:25.238Z,30.00
2023-02-11T09:57:53.913Z,10.00
2023-02-11T10:00:32.512Z,32.40
2023-02-11T10:03:38.557Z,34.70
2023-02-11T10:09:06.006Z,34.30
2023-02-11T10:11:39.437Z,33.40
2023-02-11T10:14:17.734Z,21.10
2023-02-11T10:17:37.241Z,27.60
2023-02-11T10:20:31.068Z,34.30
2023-02-11T10:23:02.088Z,35.30
2023-02-11T10:25:36.761Z,27.80
2023-02-11T10:28:21.372Z,33.10
2023-02-11T10:30:59.600Z,30.00
2023-02-11T10:33:32.738Z,36.50
2023-02-11T10:36:01.119Z,36.10
2023-02-11T10:38:29.206Z,33.60
2023-02-11T10:40:57.160Z,35.90
2023-02-11T10:43:29.279Z,24.80
2023-02-11T10:45:59.589Z,35.00
2023-02-11T10:48:41.211Z,32.80
2023-02-11T10:51:18.418Z,31.70
2023-02-11T10:54:19.587Z,32.00
2023-02-11T10:56:52.117Z,19.20
2023-02-11T10:59:34.132Z,26.00
2023-02-11T11:02:19.329Z,30.50
2023-02-11T11:04:47.981Z,31.30
2023-02-11T11:07:23.789Z,28.30
2023-02-11T11:10:03.320Z,28.00
2023-02-11T11:12:46.755Z,26.30
2023-02-11T11:15:22.992Z,31.90
2023-02-11T11:18:20.786Z,30.50
2023-02-11T11:21:16.210Z,26.50
2023-02-11T11:23:55.364Z,23.60
2023-02-11T11:26:26.880Z,22.50
2023-02-11T11:29:08.025Z,29.00
2023-02-11T11:32:06.226Z,29.90
2023-02-11T11:34:40.892Z,29.90
2023-02-11T11:37:20.205Z,24.40
2023-02-11T11:40:10.701Z,28.80
2023-02-11T11:42:39.987Z,28.30
2023-02-11T11:45:20.448Z,29.90
2023-02-11T11:48:22.912Z,31.10
2023-02-11T11:50:58.472Z,28.30
2023-02-11T11:53:53.342Z,28.00
2023-02-11T11:56:32.668Z,17.20
2023-02-11T11:59:09.605Z,32.50
2023-02-11T12:02:29.021Z,24.00
2023-02-11T12:05:15.835Z,31.50
2023-02-11T12:07:53.096Z,29.50
2023-02-11T12:10:34.610Z,29.50
2023-02-11T12:13:05.578Z,29.40
2023-02-11T12:15:58.666Z,35.30
2023-02-11T12:18:54.202Z,30.40
2023-02-11T12:21:29.567Z,31.10
2023-02-11T12:26:58.136Z,30.70
2023-02-11T12:29:59.039Z,28.30
2023-02-11T12:32:29.827Z,28.80
2023-02-11T12:35:16.324Z,24.10
2023-02-11T12:37:59.980Z,22.00
2023-02-11T12:40:45.246Z,26.20
2023-02-11T12:43:35.236Z,29.50
2023-02-11T12:46:31.633Z,28.80
2023-02-11T12:49:23.764Z,27.90
2023-02-11T12:52:04.025Z,26.70
2023-02-11T12:54:47.183Z,32.80
2023-02-11T12:57:46.723Z,28.00
2023-02-11T13:00:22.278Z,29.20
2023-02-11T13:03:11.917Z,28.40
2023-02-11T13:05:49.792Z,32.50
2023-02-11T13:08:33.048Z,33.20
2023-02-11T13:11:19.050Z,32.60
2023-02-11T13:14:04.842Z,29.90
2023-02-11T13:16:40.757Z,32.00
2023-02-11T13:19:27.814Z,34.70
2023-02-11T13:22:21.089Z,28.40
2023-02-11T13:25:06.759Z,21.10
2023-02-11T13:27:38.252Z,34.30
2023-02-11T13:30:37.122Z,29.80
2023-02-11T13:33:27.523Z,33.90
2023-02-11T13:35:58.578Z,31.80
2023-02-11T13:38:31.968Z,34.70
2023-02-11T13:41:06.278Z,30.70
2023-02-11T13:43:36.712Z,23.70
2023-02-11T13:46:11.421Z,30.80
2023-02-11T13:48:46.896Z,27.60
2023-02-11T13:51:33.808Z,29.40
2023-02-11T13:54:03.344Z,29.80
2023-02-11T13:56:36.196Z,28.50
2023-02-11T13:59:25.862Z,23.70
2023-02-11T14:02:14.189Z,27.80
2023-02-11T14:05:22.587Z,25.70
2023-02-11T14:08:30.963Z,26.30
2023-02-11T14:11:02.342Z,29.60
2023-02-11T14:13:33.376Z,28.40
2023-02-11T14:16:20.482Z,28.00
2023-02-11T14:18:53.477Z,28.70
2023-02-11T14:21:22.264Z,30.50
2023-02-11T14:23:56.148Z,23.10
2023-02-11T14:26:45.682Z,30.10
2023-02-11T14:29:20.417Z,24.70
2023-02-11T14:32:10.676Z,30.90
2023-02-11T14:35:03.545Z,30.30
2023-02-11T14:37:36.188Z,30.60
2023-02-11T14:40:35.091Z,29.60
2023-02-11T14:43:29.361Z,27.40
2023-02-11T14:46:00.320Z,21.40
2023-02-11T14:48:35.542Z,19.80
2023-02-11T14:53:37.037Z,22.90
2023-02-11T14:56:18.740Z,28.30
2023-02-11T14:58:49.433Z,29.70
2023-02-11T15:01:32.175Z,19.30
2023-02-11T15:04:03.547Z,21.80
2023-02-11T15:06:34.716Z,24.40
2023-02-11T15:09:17.107Z,26.70
2023-02-11T15:11:50.761Z,31.40
2023-02-11T15:14:32.121Z,29.50
2023-02-11T15:17:04.021Z,22.50
2023-02-11T15:19:38.635Z,27.90
2023-02-11T15:22:27.522Z,28.90
2023-02-11T15:25:15.046Z,30.70
2023-02-11T15:27:49.344Z,31.70
2023-02-11T15:30:23.851Z,33.60
2023-02-11T15:33:00.186Z,33.10
2023-02-11T15:35:41.372Z,24.20
2023-02-11T15:38:13.414Z,33.50
2023-02-11T15:40:53.694Z,23.90
2023-02-11T15:43:22.749Z,28.70
2023-02-11T15:45:51.396Z,33.40
2023-02-11T15:48:27.456Z,33.40
2023-02-11T15:51:02.805Z,33.90
2023-02-11T15:53:43.679Z,35.40
2023-02-11T15:56:24.490Z,31.60
2023-02-11T15:58:56.009Z,28.60
2023-02-11T16:01:34.311Z,32.10
2023-02-11T16:04:05.761Z,38.50
2023-02-11T16:06:41.990Z,34.50
2023-02-11T16:09:12.942Z,38.10
2023-02-11T16:11:47.447Z,38.70
2023-02-11T16:14:27.845Z,39.60
2023-02-11T16:17:22.775Z,38.50
2023-02-11T16:19:53.223Z,38.10
2023-02-11T16:22:35.556Z,38.50
2023-02-11T16:25:04.939Z,38.20
2023-02-11T16:27:41.852Z,47.10
2023-02-11T16:30:39.067Z,37.10
2023-02-11T16:33:12.249Z,41.10
2023-02-11T16:35:40.609Z,42.70
2023-02-11T16:38:08.761Z,44.50
2023-02-11T16:40:37.571Z,37.60
2023-02-11T16:43:06.615Z,46.20
2023-02-11T16:45:39.204Z,48.40
2023-02-11T16:48:09.752Z,42.70
2023-02-11T16:50:38.052Z,32.70
2023-02-11T16:53:06.698Z,48.70
2023-02-11T16:55:35.313Z,48.80
2023-02-11T16:58:03.415Z,38.80
2023-02-11T17:00:31.672Z,50.50
2023-02-11T17:02:59.785Z,45.50
2023-02-11T17:05:28.041Z,45.70
2023-02-11T17:07:56.001Z,47.20
2023-02-11T17:10:24.567Z,45.80
2023-02-11T17:12:53.637Z,29.20
2023-02-11T17:15:21.615Z,33.10
2023-02-11T17:17:49.665Z,40.50
2023-02-11T17:20:17.912Z,40.60
2023-02-11T17:22:46.067Z,35.70
2023-02-11T17:25:14.060Z,34.30
2023-02-11T17:27:42.215Z,38.10
2023-02-11T17:30:11.689Z,41.40
2023-02-11T17:32:39.703Z,40.70
2023-02-11T17:35:08.250Z,41.30
2023-02-11T17:37:36.333Z,42.80
2023-02-11T17:40:04.673Z,37.60
2023-02-11T17:42:32.696Z,32.90
2023-02-11T17:45:00.743Z,27.70
2023-02-11T17:47:30.401Z,34.20
2023-02-11T17:49:58.728Z,31.70
2023-02-11T17:52:28.299Z,37.10
2023-02-11T17:54:57.970Z,34.10
2023-02-11T17:57:26.061Z,37.40
2023-02-11T17:59:54.111Z,40.80
2023-02-11T18:02:22.163Z,34.60
2023-02-11T18:04:50.766Z,54.60
2023-02-11T18:07:20.135Z,47.40
2023-02-11T18:09:48.305Z,41.80
2023-02-11T18:12:18.324Z,52.80
2023-02-11T18:14:46.373Z,43.80
2023-02-11T18:17:14.294Z,45.60
2023-02-11T18:19:42.219Z,44.20
2023-02-11T18:22:10.341Z,41.80
2023-02-11T18:24:38.554Z,46.30
2023-02-11T18:27:06.642Z,41.70
2023-02-11T18:29:35.800Z,43.60
2023-02-11T18:32:04.352Z,43.60
2023-02-11T18:34:33.276Z,42.90
2023-02-11T18:37:01.454Z,45.00
2023-02-11T18:39:29.415Z,44.30
2023-02-11T18:41:59.742Z,44.80
2023-02-11T18:44:27.918Z,42.30
2023-02-11T18:46:56.128Z,45.40
2023-02-11T18:49:24.139Z,45.20
2023-02-11T18:51:52.185Z,46.20
2023-02-11T18:54:22.804Z,46.20
2023-02-11T18:56:50.802Z,43.30
2023-02-11T18:59:18.845Z,40.00
2023-02-11T19:01:47.149Z,37.70
2023-02-11T19:04:19.941Z,43.20
2023-02-11T19:06:49.867Z,31.80
2023-02-11T19:09:20.106Z,40.40
2023-02-11T19:11:49.942Z,43.40
2023-02-11T19:14:24.578Z,39.80
2023-02-11T19:16:57.117Z,43.70
2023-02-11T19:19:28.362Z,40.60
2023-02-11T19:21:58.648Z,42.50
2023-02-11T19:24:27.786Z,41.90
2023-02-11T19:27:02.028Z,40.90
2023-02-11T19:29:33.519Z,41.80
2023-02-11T19:32:03.461Z,41.20
2023-02-11T19:34:32.694Z,43.00
2023-02-11T19:37:01.847Z,43.80
2023-02-11T19:39:29.891Z,43.80
2023-02-11T19:41:57.886Z,43.80
2023-02-11T19:44:25.753Z,43.80
2023-02-11T19:46:54.971Z,41.40
2023-02-11T19:49:24.696Z,42.40
2023-02-11T19:51:55.447Z,37.80
2023-02-11T19:54:23.882Z,39.10
2023-02-11T19:56:52.781Z,39.60
2023-02-11T19:59:21.061Z,39.70
2023-02-11T20:01:49.349Z,39.00
2023-02-11T20:04:17.499Z,40.70
2023-02-11T20:06:48.433Z,41.80
2023-02-11T20:09:16.535Z,41.20
2023-02-11T20:11:44.916Z,43.20
2023-02-11T20:14:14.965Z,43.30
2023-02-11T20:16:49.136Z,43.90
2023-02-11T20:19:21.761Z,39.70
2023-02-11T20:21:53.409Z,41.90
2023-02-11T20:24:22.659Z,42.40
2023-02-11T20:26:55.786Z,38.40
2023-02-11T20:29:25.289Z,42.80
2023-02-11T20:31:53.960Z,43.70
2023-02-11T20:34:22.315Z,38.10
2023-02-11T20:36:53.625Z,41.70
2023-02-11T20:39:23.617Z,41.30
2023-02-11T20:41:53.470Z,40.20
2023-02-11T20:44:23.046Z,44.80
2023-02-11T20:46:52.188Z,45.50
2023-02-11T20:49:22.939Z,43.10
2023-02-11T20:51:53.730Z,35.20
2023-02-11T20:54:23.766Z,49.80
2023-02-11T20:56:53.883Z,58.60
2023-02-11T20:59:22.376Z,50.60
2023-02-11T21:01:56.031Z,46.70
2023-02-11T21:04:30.483Z,53.70
2023-02-11T21:07:01.250Z,50.40
2023-02-11T21:09:31.644Z,50.50
2023-02-11T21:12:00.627Z,53.20
2023-02-11T21:14:28.932Z,51.80
2023-02-11T21:16:57.686Z,55.50
2023-02-11T21:19:25.788Z,57.10
2023-02-11T21:21:55.280Z,55.20
2023-02-11T21:24:23.890Z,53.70
2023-02-11T21:26:51.836Z,51.90
2023-02-11T21:29:19.744Z,50.20
2023-02-11T21:31:47.956Z,48.10
2023-02-11T21:34:16.361Z,42.60
2023-02-11T21:36:48.053Z,47.20
2023-02-11T21:39:15.940Z,48.30
2023-02-11T21:41:43.834Z,43.90
2023-02-11T21:44:11.977Z,43.90
2023-02-11T21:46:40.018Z,44.50
2023-02-11T21:49:07.930Z,47.30
2023-02-11T21:51:36.391Z,47.20
2023-02-11T21:54:04.550Z,46.80
2023-02-11T21:56:34.339Z,47.70
2023-02-11T21:59:02.465Z,48.90
2023-02-11T22:01:33.305Z,51.00
2023-02-11T22:04:01.328Z,50.10
2023-02-11T22:06:31.725Z,48.10
2023-02-11T22:09:04.444Z,49.60
2023-02-11T22:11:32.407Z,51.00
2023-02-11T22:14:00.515Z,52.40
2023-02-11T22:16:29.548Z,50.90
2023-02-11T22:18:58.792Z,52.00
2023-02-11T22:21:28.129Z,52.40
2023-02-11T22:23:56.392Z,52.30
2023-02-11T22:26:26.430Z,55.20
2023-02-11T22:28:55.077Z,54.00
2023-02-11T22:31:26.204Z,51.90
2023-02-11T22:33:54.886Z,51.70
2023-02-11T22:36:35.487Z,51.40
2023-02-11T22:39:11.007Z,62.00
2023-02-11T22:41:41.876Z,48.50
2023-02-11T22:44:11.085Z,54.10
2023-02-11T22:46:39.505Z,44.40
2023-02-11T22:49:07.708Z,53.70
2023-02-11T22:51:35.849Z,53.50
2023-02-11T22:54:06.685Z,52.00
2023-02-11T22:56:35.249Z,50.50
2023-02-11T22:59:06.126Z,50.30
2023-02-11T23:01:35.402Z,51.90
2023-02-11T23:04:05.905Z,56.00
2023-02-11T23:06:34.311Z,57.50
2023-02-11T23:09:05.192Z,55.30
2023-02-11T23:11:33.887Z,55.50
2023-02-11T23:14:02.659Z,59.40
2023-02-11T23:16:33.639Z,61.60
2023-02-11T23:19:05.577Z,63.30
2023-02-11T23:21:36.628Z,65.00
2023-02-11T23:24:11.972Z,59.80
2023-02-11T23:26:42.692Z,58.60
2023-02-11T23:29:11.719Z,61.10
2023-02-11T23:31:43.487Z,50.70
2023-02-11T23:34:17.215Z,59.30
2023-02-11T23:36:45.152Z,59.40
2023-02-11T23:39:15.967Z,48.30
2023-02-11T23:41:44.634Z,61.40
2023-02-11T23:44:13.226Z,57.30
2023-02-11T23:46:41.226Z,60.20
2023-02-11T23:49:10.124Z,46.20
2023-02-11T23:51:38.079Z,48.20
2023-02-11T23:54:06.045Z,43.40
2023-02-11T23:56:36.955Z,46.80
2023-02-11T23:59:05.655Z,44.60
